FW9581 Weather Reports


Display with metric or nautical units.
time (UTC)temp
F
wind
direction
speed
MPH
gust
MPH
rain 1hr
in
rain 24hr
in
rain mn
in
humidity
%
barometer
mb
20260507153006 74 271 1.0 6.0 0.00 0.08 0.08 52 1011.1
20260507151523 74 264 1.0 5.0 0.00 0.08 0.08 54 1011.2
20260507150120 74 263 5.0 8.0 0.00 0.08 0.08 54 1011.6
20260507144632 75 281 1.0 7.0 0.00 0.08 0.08 54 1011.6
20260507143003 74 274 0.0 8.0 0.00 0.08 0.08 55 1011.4
20260507141521 74 247 5.0 9.0 0.00 0.08 0.08 56 1011.7
20260507140132 75 249 1.0 8.0 0.00 0.08 0.08 55 1011.9
20260507134632 76 259 1.0 11.0 0.00 0.08 0.08 53 1012.1
20260507133002 77 266 1.0 7.0 0.00 0.08 0.08 50 1012.1
20260507131625 76 267 1.0 8.0 0.00 0.08 0.08 53 1012.3
20260507130123 76 292 1.0 5.0 0.00 0.08 0.08 48 1012.5
20260507124642 77 295 1.0 8.0 0.00 0.08 0.08 50 1012.6
20260507123014 76 311 0.0 3.0 0.00 0.08 0.08 51 1012.9
20260507121614 76 316 2.0 5.0 0.00 0.08 0.08 51 1013.1
20260507120137 76 321 3.0 8.0 0.00 0.08 0.08 51 1012.9
20260507114643 77 276 0.0 4.0 0.00 0.08 0.08 51 1012.9
20260507113004 75 266 1.0 9.0 0.00 0.08 0.08 55 1013.1
20260507111559 75 301 0.0 5.0 0.00 0.08 0.08 54 1013.3
20260507110110 74 328 0.0 4.0 0.00 0.08 0.08 54 1013.7
20260507104630 73 220 1.0 6.0 0.00 0.08 0.08 54 1013.7
20260507103133 74 219 0.0 3.0 0.00 0.08 0.08 54 1013.9
20260507101640 73 213 2.0 5.0 0.00 0.08 0.08 55 1014.1
20260507100005 72 190 0.0 4.0 0.00 0.08 0.08 55 1014.0
20260507094509 71 189 2.0 7.0 0.00 0.08 0.08 56 1013.9
20260507093106 72 179 1.0 5.0 0.00 0.08 0.08 55 1014.0
20260507091616 71 179 4.0 7.0 0.00 0.08 0.08 53 1014.2
20260507090124 72 135 1.0 3.0 0.00 0.08 0.08 56 1014.1
20260507084632 70 135 0.0 6.0 0.00 0.08 0.08 60 1013.9
20260507083003 71 152 0.0 2.0 0.00 0.08 0.08 60 1014.1
20260507081555 69 152 0.0 2.0 0.00 0.08 0.08 61 1014.2
20260507080023 68 152 0.0 2.0 0.00 0.08 0.08 62 1014.3
20260507074617 67 152 0.0 2.0 0.00 0.08 0.08 65 1014.3
20260507073125 66 152 0.0 2.0 0.00 0.08 0.08 68 1014.3
20260507071626 65 152 0.0 4.0 0.00 0.08 0.08 70 1014.3
20260507070133 64 152 0.0 3.0 0.00 0.08 0.08 73 1014.4
20260507064637 62 152 0.0 4.0 0.00 0.08 0.08 76 1014.2
20260507063101 61 152 0.0 4.0 0.00 0.08 0.08 76 1014.2
20260507061614 62 152 0.0 4.0 0.00 0.08 0.08 77 1014.3
20260507060124 62 204 0.0 2.0 0.00 0.08 0.08 76 1014.2
20260507054508 62 204 0.0 1.0 0.00 0.08 0.08 78 1014.1
20260507053057 61 204 0.0 0.0 0.00 0.08 0.08 81 1014.1
20260507051636 60 204 0.0 1.0 0.00 0.08 0.08 84 1014.2
20260507050004 58 204 1.0 3.0 0.00 0.08 0.08 85 1014.0
20260507044502 58 204 0.0 1.0 0.00 0.08 0.08 86 1013.8
20260507043017 57 204 0.0 0.0 0.00 0.08 0.08 86 1013.5
20260507041611 57 204 0.0 2.0 0.00 0.08 0.08 86 1013.5
20260507040125 58 204 0.0 0.0 0.00 0.08 0.08 85 1013.5
20260507034634 58 204 0.0 3.0 0.00 0.08 0.08 85 1013.6
20260507033015 58 203 0.0 7.0 0.00 0.08 0.08 85 1013.8
20260507031614 58 129 1.0 4.0 0.00 0.08 0.08 86 1013.6
20260507030129 58 126 5.0 7.0 0.01 0.08 0.08 86 1013.2
20260507024643 58 112 2.0 7.0 0.02 0.08 0.08 85 1013.1
20260507023020 58 184 4.0 6.0 0.02 0.08 0.08 85 1013.0
20260507021618 58 271 1.0 4.0 0.02 0.08 0.08 83 1013.5
20260507020132 58 271 0.0 2.0 0.01 0.07 0.07 83 1013.6
20260507014510 58 178 3.0 9.0 0.00 0.06 0.06 82 1013.6
20260507013110 58 174 4.0 12.0 0.02 0.06 0.06 81 1013.7
20260507011626 58 207 5.0 13.0 0.03 0.06 0.06 81 1013.7
20260507010140 57 143 3.0 9.0 0.03 0.06 0.06 83 1013.7
20260507004517 57 147 1.0 7.0 0.06 0.06 0.06 85 1013.9
20260507003113 57 147 3.0 5.0 0.05 0.05 0.05 82 1013.9
20260507001618 58 147 2.0 4.0 0.03 0.03 0.03 84 1014.1
20260507000126 58 147 0.0 3.0 0.03 0.03 0.03 83 1014.1
20260506234632 59 147 1.0 4.0 0.01 0.01 0.01 80 1014.4
20260506233052 59 147 0.0 3.0 0.00 0.00 0.00 78 1014.6
20260506231604 59 147 0.0 3.0 0.00 0.00 0.00 78 1014.7
20260506230119 59 147 2.0 5.0 0.00 0.00 0.00 77 1014.9
20260506224632 59 147 0.0 2.0 0.00 0.00 0.00 79 1015.0
20260506223006 60 147 0.0 4.0 0.00 0.00 0.00 80 1015.2
20260506221520 60 147 0.0 3.0 0.00 0.00 0.00 82 1015.1
20260506220121 60 147 1.0 3.0 0.00 0.00 0.00 81 1015.1
20260506214628 61 147 0.0 3.0 0.00 0.00 0.00 78 1015.2
20260506213003 61 147 0.0 2.0 0.00 0.00 0.00 79 1015.3
20260506211611 61 147 0.0 2.0 0.00 0.00 0.00 79 1015.3
20260506210127 61 147 0.0 3.0 0.00 0.00 0.00 78 1015.3
20260506204637 61 147 0.0 2.0 0.00 0.00 0.00 77 1015.5
20260506203013 61 147 2.0 6.0 0.00 0.00 0.00 75 1015.6
20260506201610 61 200 0.0 4.0 0.00 0.00 0.00 74 1015.6
20260506200112 61 200 0.0 2.0 0.00 0.00 0.00 76 1015.8
20260506194615 62 200 0.0 3.0 0.00 0.00 0.00 74 1015.8
20260506193130 62 200 2.0 5.0 0.00 0.00 0.00 72 1015.7
20260506191639 63 166 4.0 11.0 0.00 0.00 0.00 69 1015.5
20260506190055 63 200 5.0 9.0 0.00 0.00 0.00 67 1015.3
20260506184610 64 195 4.0 10.0 0.00 0.00 0.00 64 1015.1
20260506183128 64 187 3.0 7.0 0.00 0.00 0.00 63 1014.8
20260506181600 64 185 4.0 8.0 0.00 0.00 0.00 63 1014.7
20260506180110 64 200 4.0 8.0 0.00 0.00 0.00 63 1014.6
20260506174623 64 228 2.0 6.0 0.00 0.00 0.00 63 1014.4
20260506173007 65 228 0.0 5.0 0.00 0.00 0.00 63 1014.2
20260506171612 65 228 1.0 6.0 0.00 0.00 0.00 63 1014.4
20260506170118 65 228 3.0 7.0 0.00 0.00 0.00 61 1014.4
20260506164502 66 211 2.0 6.0 0.00 0.00 0.00 61 1014.3
20260506163027 66 247 2.0 9.0 0.00 0.00 0.00 63 1014.5
20260506161615 66 247 4.0 8.0 0.00 0.00 0.00 63 1014.5
20260506160132 67 243 4.0 8.0 0.00 0.00 0.00 61 1014.5
20260506154527 67 198 2.0 7.0 0.00 0.00 0.00 61 1014.5